sensor_id;sensor_type;location;lat;lon;timestamp;P1;durP1;ratioP1;P2;durP2;ratioP2
51616;SDS011;37697;52.588;13.394;2023-06-14T00:03:51;2.60;;;1.70;;
51616;SDS011;37697;52.588;13.394;2023-06-14T00:09:17;2.70;;;1.50;;
51616;SDS011;37697;52.588;13.394;2023-06-14T00:14:44;3.10;;;2.00;;
51616;SDS011;37697;52.588;13.394;2023-06-14T00:20:11;3.60;;;2.10;;
51616;SDS011;37697;52.588;13.394;2023-06-14T00:25:36;2.80;;;1.70;;
51616;SDS011;37697;52.588;13.394;2023-06-14T00:31:06;4.60;;;1.90;;
51616;SDS011;37697;52.588;13.394;2023-06-14T00:36:32;4.60;;;1.80;;
51616;SDS011;37697;52.588;13.394;2023-06-14T00:41:57;3.70;;;1.90;;
51616;SDS011;37697;52.588;13.394;2023-06-14T00:47:14;2.90;;;1.90;;
51616;SDS011;37697;52.588;13.394;2023-06-14T00:52:41;3.10;;;1.80;;
51616;SDS011;37697;52.588;13.394;2023-06-14T00:58:07;2.90;;;2.10;;
51616;SDS011;37697;52.588;13.394;2023-06-14T01:03:26;5.40;;;2.30;;
51616;SDS011;37697;52.588;13.394;2023-06-14T01:08:55;7.30;;;2.40;;
51616;SDS011;37697;52.588;13.394;2023-06-14T01:14:27;5.80;;;3.00;;
51616;SDS011;37697;52.588;13.394;2023-06-14T01:19:55;4.10;;;2.00;;
51616;SDS011;37697;52.588;13.394;2023-06-14T01:25:22;4.40;;;2.30;;
51616;SDS011;37697;52.588;13.394;2023-06-14T01:30:49;3.10;;;2.10;;
51616;SDS011;37697;52.588;13.394;2023-06-14T01:36:17;2.80;;;2.00;;
51616;SDS011;37697;52.588;13.394;2023-06-14T01:41:45;5.00;;;2.30;;
51616;SDS011;37697;52.588;13.394;2023-06-14T01:47:13;5.30;;;2.20;;
51616;SDS011;37697;52.588;13.394;2023-06-14T01:52:40;3.90;;;2.20;;
51616;SDS011;37697;52.588;13.394;2023-06-14T01:58:05;4.70;;;2.30;;
51616;SDS011;37697;52.588;13.394;2023-06-14T02:03:31;4.50;;;2.20;;
51616;SDS011;37697;52.588;13.394;2023-06-14T02:08:57;3.70;;;2.60;;
51616;SDS011;37697;52.588;13.394;2023-06-14T02:14:23;6.20;;;2.60;;
51616;SDS011;37697;52.588;13.394;2023-06-14T02:19:48;3.80;;;2.70;;
51616;SDS011;37697;52.588;13.394;2023-06-14T02:25:15;5.40;;;2.70;;
51616;SDS011;37697;52.588;13.394;2023-06-14T02:30:41;4.40;;;2.70;;
51616;SDS011;37697;52.588;13.394;2023-06-14T02:36:06;6.50;;;3.10;;
51616;SDS011;37697;52.588;13.394;2023-06-14T02:41:21;7.30;;;3.50;;
51616;SDS011;37697;52.588;13.394;2023-06-14T02:46:46;6.60;;;3.20;;
51616;SDS011;37697;52.588;13.394;2023-06-14T02:52:10;3.90;;;3.00;;
51616;SDS011;37697;52.588;13.394;2023-06-14T02:57:36;4.50;;;2.80;;
51616;SDS011;37697;52.588;13.394;2023-06-14T03:03:02;7.00;;;3.00;;
51616;SDS011;37697;52.588;13.394;2023-06-14T03:08:18;4.30;;;2.80;;
51616;SDS011;37697;52.588;13.394;2023-06-14T03:13:44;5.90;;;2.60;;
51616;SDS011;37697;52.588;13.394;2023-06-14T03:19:10;4.70;;;3.20;;
51616;SDS011;37697;52.588;13.394;2023-06-14T03:24:35;4.10;;;3.00;;
51616;SDS011;37697;52.588;13.394;2023-06-14T03:30:01;4.30;;;2.90;;
51616;SDS011;37697;52.588;13.394;2023-06-14T03:35:27;4.40;;;2.90;;
51616;SDS011;37697;52.588;13.394;2023-06-14T03:40:54;6.80;;;3.20;;
51616;SDS011;37697;52.588;13.394;2023-06-14T03:46:19;6.60;;;3.10;;
51616;SDS011;37697;52.588;13.394;2023-06-14T03:51:45;5.60;;;2.90;;
51616;SDS011;37697;52.588;13.394;2023-06-14T03:56:56;7.50;;;3.50;;
51616;SDS011;37697;52.588;13.394;2023-06-14T04:02:22;4.40;;;3.00;;
51616;SDS011;37697;52.588;13.394;2023-06-14T04:07:40;5.30;;;3.50;;
51616;SDS011;37697;52.588;13.394;2023-06-14T04:13:06;5.50;;;3.70;;
51616;SDS011;37697;52.588;13.394;2023-06-14T04:18:31;5.90;;;4.20;;
51616;SDS011;37697;52.588;13.394;2023-06-14T04:23:42;4.90;;;3.70;;
51616;SDS011;37697;52.588;13.394;2023-06-14T04:29:10;8.00;;;3.80;;
51616;SDS011;37697;52.588;13.394;2023-06-14T04:34:39;7.10;;;4.80;;
51616;SDS011;37697;52.588;13.394;2023-06-14T04:40:06;5.50;;;4.00;;
51616;SDS011;37697;52.588;13.394;2023-06-14T04:45:33;9.90;;;4.60;;
51616;SDS011;37697;52.588;13.394;2023-06-14T04:50:59;6.50;;;4.30;;
51616;SDS011;37697;52.588;13.394;2023-06-14T04:56:17;6.40;;;4.00;;
51616;SDS011;37697;52.588;13.394;2023-06-14T05:01:43;5.70;;;4.00;;
51616;SDS011;37697;52.588;13.394;2023-06-14T05:07:12;12.00;;;4.30;;
51616;SDS011;37697;52.588;13.394;2023-06-14T05:12:38;5.20;;;3.50;;
51616;SDS011;37697;52.588;13.394;2023-06-14T05:18:04;8.70;;;4.30;;
51616;SDS011;37697;52.588;13.394;2023-06-14T05:23:29;6.30;;;4.00;;
51616;SDS011;37697;52.588;13.394;2023-06-14T05:28:56;6.50;;;4.00;;
51616;SDS011;37697;52.588;13.394;2023-06-14T05:34:22;7.80;;;3.70;;
51616;SDS011;37697;52.588;13.394;2023-06-14T05:39:48;6.70;;;3.80;;
51616;SDS011;37697;52.588;13.394;2023-06-14T05:45:13;6.20;;;3.70;;
51616;SDS011;37697;52.588;13.394;2023-06-14T05:50:39;7.70;;;3.90;;
51616;SDS011;37697;52.588;13.394;2023-06-14T05:56:05;6.20;;;4.00;;
51616;SDS011;37697;52.588;13.394;2023-06-14T06:01:31;5.90;;;3.90;;
51616;SDS011;37697;52.588;13.394;2023-06-14T06:06:57;8.40;;;3.40;;
51616;SDS011;37697;52.588;13.394;2023-06-14T06:12:23;6.00;;;3.80;;
51616;SDS011;37697;52.588;13.394;2023-06-14T06:17:49;7.70;;;3.50;;
51616;SDS011;37697;52.588;13.394;2023-06-14T06:23:14;5.60;;;3.30;;
51616;SDS011;37697;52.588;13.394;2023-06-14T06:28:41;6.60;;;3.40;;
51616;SDS011;37697;52.588;13.394;2023-06-14T06:34:07;7.10;;;3.70;;
51616;SDS011;37697;52.588;13.394;2023-06-14T06:39:33;6.00;;;4.00;;
51616;SDS011;37697;52.588;13.394;2023-06-14T06:44:59;9.60;;;4.00;;
51616;SDS011;37697;52.588;13.394;2023-06-14T06:50:28;5.50;;;4.00;;
51616;SDS011;37697;52.588;13.394;2023-06-14T06:55:54;9.00;;;4.20;;
51616;SDS011;37697;52.588;13.394;2023-06-14T07:01:12;7.50;;;3.70;;
51616;SDS011;37697;52.588;13.394;2023-06-14T07:06:38;7.90;;;3.50;;
51616;SDS011;37697;52.588;13.394;2023-06-14T07:12:04;6.10;;;3.70;;
51616;SDS011;37697;52.588;13.394;2023-06-14T07:17:30;14.60;;;5.00;;
51616;SDS011;37697;52.588;13.394;2023-06-14T07:22:56;6.10;;;3.50;;
51616;SDS011;37697;52.588;13.394;2023-06-14T07:28:22;7.40;;;4.30;;
51616;SDS011;37697;52.588;13.394;2023-06-14T07:33:48;6.40;;;4.00;;
51616;SDS011;37697;52.588;13.394;2023-06-14T07:39:14;6.10;;;3.40;;
51616;SDS011;37697;52.588;13.394;2023-06-14T07:44:40;8.20;;;3.80;;
51616;SDS011;37697;52.588;13.394;2023-06-14T07:49:58;6.00;;;3.90;;
51616;SDS011;37697;52.588;13.394;2023-06-14T07:55:18;5.80;;;3.40;;
51616;SDS011;37697;52.588;13.394;2023-06-14T08:00:56;4.10;;;3.10;;
51616;SDS011;37697;52.588;13.394;2023-06-14T08:06:15;7.20;;;3.70;;
51616;SDS011;37697;52.588;13.394;2023-06-14T08:11:40;5.80;;;3.60;;
51616;SDS011;37697;52.588;13.394;2023-06-14T08:17:06;5.20;;;3.10;;
51616;SDS011;37697;52.588;13.394;2023-06-14T08:22:32;7.40;;;3.20;;
51616;SDS011;37697;52.588;13.394;2023-06-14T08:27:58;8.40;;;3.40;;
51616;SDS011;37697;52.588;13.394;2023-06-14T08:33:24;5.50;;;3.20;;
51616;SDS011;37697;52.588;13.394;2023-06-14T08:38:50;6.50;;;3.00;;
51616;SDS011;37697;52.588;13.394;2023-06-14T08:44:16;4.20;;;2.70;;
51616;SDS011;37697;52.588;13.394;2023-06-14T08:49:42;8.10;;;2.90;;
51616;SDS011;37697;52.588;13.394;2023-06-14T08:55:30;5.10;;;2.90;;
51616;SDS011;37697;52.588;13.394;2023-06-14T09:00:46;6.50;;;2.90;;
51616;SDS011;37697;52.588;13.394;2023-06-14T09:11:31;9.10;;;3.40;;
51616;SDS011;37697;52.588;13.394;2023-06-14T09:16:44;6.50;;;2.80;;
51616;SDS011;37697;52.588;13.394;2023-06-14T09:22:10;8.40;;;3.00;;
51616;SDS011;37697;52.588;13.394;2023-06-14T09:27:37;4.50;;;2.80;;
51616;SDS011;37697;52.588;13.394;2023-06-14T09:33:03;5.80;;;3.70;;
51616;SDS011;37697;52.588;13.394;2023-06-14T09:38:28;6.50;;;2.80;;
51616;SDS011;37697;52.588;13.394;2023-06-14T09:43:54;6.80;;;3.10;;
51616;SDS011;37697;52.588;13.394;2023-06-14T09:49:25;6.90;;;2.80;;
51616;SDS011;37697;52.588;13.394;2023-06-14T09:54:59;3.90;;;2.50;;
51616;SDS011;37697;52.588;13.394;2023-06-14T10:00:36;7.20;;;2.90;;
51616;SDS011;37697;52.588;13.394;2023-06-14T10:06:03;8.60;;;3.60;;
51616;SDS011;37697;52.588;13.394;2023-06-14T10:11:33;5.40;;;3.00;;
51616;SDS011;37697;52.588;13.394;2023-06-14T10:17:02;5.70;;;2.80;;
51616;SDS011;37697;52.588;13.394;2023-06-14T10:22:35;6.90;;;3.10;;
51616;SDS011;37697;52.588;13.394;2023-06-14T10:28:17;7.70;;;3.30;;
51616;SDS011;37697;52.588;13.394;2023-06-14T10:33:49;6.10;;;2.70;;
51616;SDS011;37697;52.588;13.394;2023-06-14T10:39:21;9.30;;;3.20;;
51616;SDS011;37697;52.588;13.394;2023-06-14T10:44:50;9.60;;;3.80;;
51616;SDS011;37697;52.588;13.394;2023-06-14T10:50:19;7.50;;;3.00;;
51616;SDS011;37697;52.588;13.394;2023-06-14T10:55:52;6.50;;;3.20;;
51616;SDS011;37697;52.588;13.394;2023-06-14T11:01:31;6.60;;;3.20;;
51616;SDS011;37697;52.588;13.394;2023-06-14T11:07:03;6.90;;;3.10;;
51616;SDS011;37697;52.588;13.394;2023-06-14T11:12:52;7.70;;;3.00;;
51616;SDS011;37697;52.588;13.394;2023-06-14T11:18:21;4.90;;;3.00;;
51616;SDS011;37697;52.588;13.394;2023-06-14T11:23:50;9.90;;;3.30;;
51616;SDS011;37697;52.588;13.394;2023-06-14T11:29:16;10.80;;;3.60;;
51616;SDS011;37697;52.588;13.394;2023-06-14T11:34:46;3.40;;;2.50;;
51616;SDS011;37697;52.588;13.394;2023-06-14T11:40:13;6.00;;;2.80;;
51616;SDS011;37697;52.588;13.394;2023-06-14T11:45:39;7.80;;;2.90;;
51616;SDS011;37697;52.588;13.394;2023-06-14T11:51:08;8.20;;;2.90;;
51616;SDS011;37697;52.588;13.394;2023-06-14T11:56:34;7.60;;;2.90;;
51616;SDS011;37697;52.588;13.394;2023-06-14T12:02:00;6.80;;;3.10;;
51616;SDS011;37697;52.588;13.394;2023-06-14T12:07:29;6.80;;;2.90;;
51616;SDS011;37697;52.588;13.394;2023-06-14T12:12:58;7.90;;;2.80;;
51616;SDS011;37697;52.588;13.394;2023-06-14T12:18:32;7.50;;;3.10;;
51616;SDS011;37697;52.588;13.394;2023-06-14T12:23:59;8.30;;;2.90;;
51616;SDS011;37697;52.588;13.394;2023-06-14T12:29:27;5.90;;;2.70;;
51616;SDS011;37697;52.588;13.394;2023-06-14T12:34:53;5.50;;;2.50;;
51616;SDS011;37697;52.588;13.394;2023-06-14T12:40:20;4.80;;;2.70;;
51616;SDS011;37697;52.588;13.394;2023-06-14T12:45:46;6.20;;;2.50;;
51616;SDS011;37697;52.588;13.394;2023-06-14T12:51:12;6.80;;;2.50;;
51616;SDS011;37697;52.588;13.394;2023-06-14T12:56:38;6.20;;;2.70;;
51616;SDS011;37697;52.588;13.394;2023-06-14T13:02:15;6.50;;;2.30;;
51616;SDS011;37697;52.588;13.394;2023-06-14T13:07:42;4.60;;;2.30;;
51616;SDS011;37697;52.588;13.394;2023-06-14T13:13:08;5.70;;;2.70;;
51616;SDS011;37697;52.588;13.394;2023-06-14T13:18:34;5.40;;;2.20;;
51616;SDS011;37697;52.588;13.394;2023-06-14T13:24:00;5.80;;;2.40;;
51616;SDS011;37697;52.588;13.394;2023-06-14T13:29:26;11.20;;;2.40;;
51616;SDS011;37697;52.588;13.394;2023-06-14T13:34:51;4.80;;;2.50;;
51616;SDS011;37697;52.588;13.394;2023-06-14T13:40:17;6.10;;;2.10;;
51616;SDS011;37697;52.588;13.394;2023-06-14T13:45:43;4.50;;;2.20;;
51616;SDS011;37697;52.588;13.394;2023-06-14T13:51:09;6.60;;;2.50;;
51616;SDS011;37697;52.588;13.394;2023-06-14T13:56:35;6.40;;;2.00;;
51616;SDS011;37697;52.588;13.394;2023-06-14T14:02:01;4.60;;;2.50;;
51616;SDS011;37697;52.588;13.394;2023-06-14T14:07:27;5.50;;;2.60;;
51616;SDS011;37697;52.588;13.394;2023-06-14T14:12:53;7.20;;;2.60;;
51616;SDS011;37697;52.588;13.394;2023-06-14T14:18:18;5.80;;;2.40;;
51616;SDS011;37697;52.588;13.394;2023-06-14T14:23:44;5.00;;;2.50;;
51616;SDS011;37697;52.588;13.394;2023-06-14T14:29:03;6.00;;;2.30;;
51616;SDS011;37697;52.588;13.394;2023-06-14T14:34:30;7.80;;;2.50;;
51616;SDS011;37697;52.588;13.394;2023-06-14T14:39:56;5.80;;;2.90;;
51616;SDS011;37697;52.588;13.394;2023-06-14T14:45:22;4.00;;;2.50;;
51616;SDS011;37697;52.588;13.394;2023-06-14T14:50:48;6.30;;;2.60;;
51616;SDS011;37697;52.588;13.394;2023-06-14T14:56:14;6.20;;;2.60;;
51616;SDS011;37697;52.588;13.394;2023-06-14T15:01:40;7.40;;;2.80;;
51616;SDS011;37697;52.588;13.394;2023-06-14T15:06:49;5.90;;;2.60;;
51616;SDS011;37697;52.588;13.394;2023-06-14T15:12:15;6.20;;;2.80;;
51616;SDS011;37697;52.588;13.394;2023-06-14T15:17:35;5.20;;;2.50;;
51616;SDS011;37697;52.588;13.394;2023-06-14T15:23:01;5.10;;;2.30;;
51616;SDS011;37697;52.588;13.394;2023-06-14T15:28:26;9.00;;;2.60;;
51616;SDS011;37697;52.588;13.394;2023-06-14T15:33:54;5.30;;;2.50;;
51616;SDS011;37697;52.588;13.394;2023-06-14T15:39:20;8.90;;;2.40;;
51616;SDS011;37697;52.588;13.394;2023-06-14T15:44:46;5.00;;;2.30;;
51616;SDS011;37697;52.588;13.394;2023-06-14T15:49:52;4.70;;;2.10;;
51616;SDS011;37697;52.588;13.394;2023-06-14T15:55:18;6.30;;;2.60;;
51616;SDS011;37697;52.588;13.394;2023-06-14T16:00:44;5.10;;;2.50;;
51616;SDS011;37697;52.588;13.394;2023-06-14T16:05:53;3.20;;;2.10;;
51616;SDS011;37697;52.588;13.394;2023-06-14T16:11:19;3.40;;;2.00;;
51616;SDS011;37697;52.588;13.394;2023-06-14T16:16:44;5.30;;;2.20;;
51616;SDS011;37697;52.588;13.394;2023-06-14T16:22:10;5.70;;;2.40;;
51616;SDS011;37697;52.588;13.394;2023-06-14T16:27:36;6.70;;;2.80;;
51616;SDS011;37697;52.588;13.394;2023-06-14T16:33:02;5.10;;;3.00;;
51616;SDS011;37697;52.588;13.394;2023-06-14T16:38:28;7.50;;;3.00;;
51616;SDS011;37697;52.588;13.394;2023-06-14T16:43:54;5.10;;;2.40;;
51616;SDS011;37697;52.588;13.394;2023-06-14T16:49:20;5.30;;;3.00;;
51616;SDS011;37697;52.588;13.394;2023-06-14T16:54:46;5.50;;;2.30;;
51616;SDS011;37697;52.588;13.394;2023-06-14T17:00:13;7.20;;;2.80;;
51616;SDS011;37697;52.588;13.394;2023-06-14T17:05:40;8.90;;;3.20;;
51616;SDS011;37697;52.588;13.394;2023-06-14T17:11:20;9.90;;;2.80;;
51616;SDS011;37697;52.588;13.394;2023-06-14T17:16:46;4.80;;;2.70;;
51616;SDS011;37697;52.588;13.394;2023-06-14T17:22:12;5.10;;;2.50;;
51616;SDS011;37697;52.588;13.394;2023-06-14T17:27:39;6.80;;;3.20;;
51616;SDS011;37697;52.588;13.394;2023-06-14T17:33:08;7.10;;;2.60;;
51616;SDS011;37697;52.588;13.394;2023-06-14T17:38:34;5.10;;;2.40;;
51616;SDS011;37697;52.588;13.394;2023-06-14T17:44:00;9.70;;;2.60;;
51616;SDS011;37697;52.588;13.394;2023-06-14T17:49:26;4.90;;;3.10;;
51616;SDS011;37697;52.588;13.394;2023-06-14T17:54:52;4.50;;;2.50;;
51616;SDS011;37697;52.588;13.394;2023-06-14T18:00:18;4.90;;;2.50;;
51616;SDS011;37697;52.588;13.394;2023-06-14T18:05:35;4.60;;;2.50;;
51616;SDS011;37697;52.588;13.394;2023-06-14T18:11:01;5.00;;;2.40;;
51616;SDS011;37697;52.588;13.394;2023-06-14T18:16:27;4.30;;;2.60;;
51616;SDS011;37697;52.588;13.394;2023-06-14T18:21:53;7.30;;;3.00;;
51616;SDS011;37697;52.588;13.394;2023-06-14T18:27:19;5.50;;;2.50;;
51616;SDS011;37697;52.588;13.394;2023-06-14T18:32:45;6.70;;;2.90;;
51616;SDS011;37697;52.588;13.394;2023-06-14T18:38:13;6.50;;;2.90;;
51616;SDS011;37697;52.588;13.394;2023-06-14T18:43:39;8.10;;;2.80;;
51616;SDS011;37697;52.588;13.394;2023-06-14T18:49:05;7.00;;;2.40;;
51616;SDS011;37697;52.588;13.394;2023-06-14T18:54:31;5.90;;;2.60;;
51616;SDS011;37697;52.588;13.394;2023-06-14T18:59:57;5.40;;;2.60;;
51616;SDS011;37697;52.588;13.394;2023-06-14T19:05:17;6.20;;;2.40;;
51616;SDS011;37697;52.588;13.394;2023-06-14T19:10:42;7.50;;;2.80;;
51616;SDS011;37697;52.588;13.394;2023-06-14T19:16:12;5.90;;;2.50;;
51616;SDS011;37697;52.588;13.394;2023-06-14T19:21:38;7.00;;;2.20;;
51616;SDS011;37697;52.588;13.394;2023-06-14T19:27:04;5.50;;;2.60;;
51616;SDS011;37697;52.588;13.394;2023-06-14T19:32:31;6.40;;;2.60;;
51616;SDS011;37697;52.588;13.394;2023-06-14T19:38:00;5.60;;;2.50;;
51616;SDS011;37697;52.588;13.394;2023-06-14T19:43:26;5.50;;;2.70;;
51616;SDS011;37697;52.588;13.394;2023-06-14T19:48:51;7.00;;;2.80;;
51616;SDS011;37697;52.588;13.394;2023-06-14T19:54:17;6.90;;;2.80;;
51616;SDS011;37697;52.588;13.394;2023-06-14T19:59:44;5.00;;;2.80;;
51616;SDS011;37697;52.588;13.394;2023-06-14T20:05:10;4.10;;;2.50;;
51616;SDS011;37697;52.588;13.394;2023-06-14T20:10:36;3.90;;;2.00;;
51616;SDS011;37697;52.588;13.394;2023-06-14T20:16:02;4.40;;;2.60;;
51616;SDS011;37697;52.588;13.394;2023-06-14T20:21:28;4.30;;;2.30;;
51616;SDS011;37697;52.588;13.394;2023-06-14T20:26:54;8.90;;;2.60;;
51616;SDS011;37697;52.588;13.394;2023-06-14T20:32:20;4.00;;;2.60;;
51616;SDS011;37697;52.588;13.394;2023-06-14T20:37:46;7.30;;;2.80;;
51616;SDS011;37697;52.588;13.394;2023-06-14T20:43:11;6.60;;;2.80;;
51616;SDS011;37697;52.588;13.394;2023-06-14T20:48:37;4.40;;;2.50;;
51616;SDS011;37697;52.588;13.394;2023-06-14T20:54:03;3.70;;;2.40;;
51616;SDS011;37697;52.588;13.394;2023-06-14T20:59:29;6.70;;;2.50;;
51616;SDS011;37697;52.588;13.394;2023-06-14T21:04:55;6.20;;;2.60;;
51616;SDS011;37697;52.588;13.394;2023-06-14T21:10:21;5.30;;;2.50;;
51616;SDS011;37697;52.588;13.394;2023-06-14T21:15:47;4.40;;;2.60;;
51616;SDS011;37697;52.588;13.394;2023-06-14T21:21:14;7.00;;;2.90;;
51616;SDS011;37697;52.588;13.394;2023-06-14T21:26:40;4.80;;;2.50;;
51616;SDS011;37697;52.588;13.394;2023-06-14T21:32:07;7.50;;;2.70;;
51616;SDS011;37697;52.588;13.394;2023-06-14T21:37:33;8.40;;;2.80;;
51616;SDS011;37697;52.588;13.394;2023-06-14T21:42:59;3.70;;;2.40;;
51616;SDS011;37697;52.588;13.394;2023-06-14T21:48:25;4.50;;;2.50;;
51616;SDS011;37697;52.588;13.394;2023-06-14T21:53:50;5.20;;;2.80;;
51616;SDS011;37697;52.588;13.394;2023-06-14T21:59:16;5.40;;;2.70;;
51616;SDS011;37697;52.588;13.394;2023-06-14T22:04:42;5.90;;;2.50;;
51616;SDS011;37697;52.588;13.394;2023-06-14T22:10:09;4.20;;;2.60;;
51616;SDS011;37697;52.588;13.394;2023-06-14T22:15:35;4.90;;;2.70;;
51616;SDS011;37697;52.588;13.394;2023-06-14T22:21:01;5.10;;;2.70;;
51616;SDS011;37697;52.588;13.394;2023-06-14T22:26:28;7.60;;;3.30;;
51616;SDS011;37697;52.588;13.394;2023-06-14T22:31:55;5.20;;;2.50;;
51616;SDS011;37697;52.588;13.394;2023-06-14T22:37:21;4.70;;;2.50;;
51616;SDS011;37697;52.588;13.394;2023-06-14T22:42:47;5.00;;;2.70;;
51616;SDS011;37697;52.588;13.394;2023-06-14T22:48:14;4.60;;;2.50;;
51616;SDS011;37697;52.588;13.394;2023-06-14T22:53:40;5.70;;;2.70;;
51616;SDS011;37697;52.588;13.394;2023-06-14T22:59:07;6.00;;;3.30;;
51616;SDS011;37697;52.588;13.394;2023-06-14T23:04:33;4.60;;;2.70;;
51616;SDS011;37697;52.588;13.394;2023-06-14T23:09:59;4.50;;;3.00;;
51616;SDS011;37697;52.588;13.394;2023-06-14T23:15:25;4.90;;;2.60;;
51616;SDS011;37697;52.588;13.394;2023-06-14T23:20:51;6.20;;;2.40;;
51616;SDS011;37697;52.588;13.394;2023-06-14T23:26:10;6.10;;;2.80;;
51616;SDS011;37697;52.588;13.394;2023-06-14T23:31:35;4.30;;;2.90;;
51616;SDS011;37697;52.588;13.394;2023-06-14T23:37:02;4.00;;;2.60;;
51616;SDS011;37697;52.588;13.394;2023-06-14T23:42:28;7.20;;;2.80;;
51616;SDS011;37697;52.588;13.394;2023-06-14T23:47:54;4.60;;;2.80;;
51616;SDS011;37697;52.588;13.394;2023-06-14T23:53:20;6.30;;;2.70;;
51616;SDS011;37697;52.588;13.394;2023-06-14T23:58:48;7.70;;;2.90;;
